sensor_id;sensor_type;location;lat;lon;timestamp;temperature;humidity
8043;DHT22;4064;48.132;11.366;2023-06-24T00:02:17;15.90;99.90
8043;DHT22;4064;48.132;11.366;2023-06-24T00:04:42;15.90;99.90
8043;DHT22;4064;48.132;11.366;2023-06-24T00:07:08;15.90;99.90
8043;DHT22;4064;48.132;11.366;2023-06-24T00:09:34;16.00;99.90
8043;DHT22;4064;48.132;11.366;2023-06-24T00:12:00;16.10;99.90
8043;DHT22;4064;48.132;11.366;2023-06-24T00:14:26;16.00;99.90
8043;DHT22;4064;48.132;11.366;2023-06-24T00:16:53;16.00;99.90
8043;DHT22;4064;48.132;11.366;2023-06-24T00:19:21;15.90;99.90
8043;DHT22;4064;48.132;11.366;2023-06-24T00:21:50;16.10;99.90
8043;DHT22;4064;48.132;11.366;2023-06-24T00:24:22;16.00;99.90
8043;DHT22;4064;48.132;11.366;2023-06-24T00:26:55;16.00;99.90
8043;DHT22;4064;48.132;11.366;2023-06-24T00:29:21;16.10;99.90
8043;DHT22;4064;48.132;11.366;2023-06-24T00:31:47;16.10;99.90
8043;DHT22;4064;48.132;11.366;2023-06-24T00:34:13;16.10;99.90
8043;DHT22;4064;48.132;11.366;2023-06-24T00:36:39;16.10;99.90
8043;DHT22;4064;48.132;11.366;2023-06-24T00:39:05;16.00;99.90
8043;DHT22;4064;48.132;11.366;2023-06-24T00:41:35;16.00;99.90
8043;DHT22;4064;48.132;11.366;2023-06-24T00:44:01;16.00;99.90
8043;DHT22;4064;48.132;11.366;2023-06-24T00:46:28;15.90;99.90
8043;DHT22;4064;48.132;11.366;2023-06-24T00:48:57;15.80;99.90
8043;DHT22;4064;48.132;11.366;2023-06-24T00:51:23;15.90;99.90
8043;DHT22;4064;48.132;11.366;2023-06-24T00:53:58;15.90;99.90
8043;DHT22;4064;48.132;11.366;2023-06-24T00:56:33;15.90;99.90
8043;DHT22;4064;48.132;11.366;2023-06-24T00:59:03;15.90;99.90
8043;DHT22;4064;48.132;11.366;2023-06-24T01:01:33;15.90;99.90
8043;DHT22;4064;48.132;11.366;2023-06-24T01:03:59;15.90;99.90
8043;DHT22;4064;48.132;11.366;2023-06-24T01:06:27;16.00;99.90
8043;DHT22;4064;48.132;11.366;2023-06-24T01:08:59;15.80;99.90
8043;DHT22;4064;48.132;11.366;2023-06-24T01:11:26;15.80;99.90
8043;DHT22;4064;48.132;11.366;2023-06-24T01:13:52;15.90;99.90
8043;DHT22;4064;48.132;11.366;2023-06-24T01:16:49;15.80;99.90
8043;DHT22;4064;48.132;11.366;2023-06-24T01:30:17;15.70;99.90
8043;DHT22;4064;48.132;11.366;2023-06-24T01:32:55;15.90;99.90
8043;DHT22;4064;48.132;11.366;2023-06-24T01:35:30;15.80;99.90
8043;DHT22;4064;48.132;11.366;2023-06-24T01:38:00;15.80;99.90
8043;DHT22;4064;48.132;11.366;2023-06-24T01:40:37;15.70;99.90
8043;DHT22;4064;48.132;11.366;2023-06-24T01:43:06;15.80;99.90
8043;DHT22;4064;48.132;11.366;2023-06-24T01:45:40;15.80;99.90
8043;DHT22;4064;48.132;11.366;2023-06-24T01:48:12;15.80;99.90
8043;DHT22;4064;48.132;11.366;2023-06-24T01:50:41;15.80;99.90
8043;DHT22;4064;48.132;11.366;2023-06-24T01:53:08;15.70;99.90
8043;DHT22;4064;48.132;11.366;2023-06-24T01:55:36;15.70;99.90
8043;DHT22;4064;48.132;11.366;2023-06-24T01:58:05;15.70;99.90
8043;DHT22;4064;48.132;11.366;2023-06-24T02:00:33;15.70;99.90
8043;DHT22;4064;48.132;11.366;2023-06-24T02:03:01;15.70;99.90
8043;DHT22;4064;48.132;11.366;2023-06-24T02:05:28;15.60;99.90
8043;DHT22;4064;48.132;11.366;2023-06-24T02:07:56;15.70;99.90
8043;DHT22;4064;48.132;11.366;2023-06-24T02:10:23;15.70;99.90
8043;DHT22;4064;48.132;11.366;2023-06-24T02:12:50;15.60;99.90
8043;DHT22;4064;48.132;11.366;2023-06-24T02:15:17;15.60;99.90
8043;DHT22;4064;48.132;11.366;2023-06-24T02:17:45;15.60;99.90
8043;DHT22;4064;48.132;11.366;2023-06-24T02:20:14;15.60;99.90
8043;DHT22;4064;48.132;11.366;2023-06-24T02:22:42;15.50;99.90
8043;DHT22;4064;48.132;11.366;2023-06-24T02:25:09;15.50;99.90
8043;DHT22;4064;48.132;11.366;2023-06-24T02:27:36;15.60;99.90
8043;DHT22;4064;48.132;11.366;2023-06-24T02:30:03;15.60;99.90
8043;DHT22;4064;48.132;11.366;2023-06-24T02:32:30;15.60;99.90
8043;DHT22;4064;48.132;11.366;2023-06-24T02:34:57;15.50;99.90
8043;DHT22;4064;48.132;11.366;2023-06-24T02:37:24;15.60;99.90
8043;DHT22;4064;48.132;11.366;2023-06-24T02:39:50;15.70;99.90
8043;DHT22;4064;48.132;11.366;2023-06-24T02:42:16;15.60;99.90
8043;DHT22;4064;48.132;11.366;2023-06-24T02:44:42;15.80;99.90
8043;DHT22;4064;48.132;11.366;2023-06-24T02:47:10;15.70;99.90
8043;DHT22;4064;48.132;11.366;2023-06-24T02:49:38;15.70;99.90
8043;DHT22;4064;48.132;11.366;2023-06-24T02:52:05;15.50;99.90
8043;DHT22;4064;48.132;11.366;2023-06-24T02:54:31;15.50;99.90
8043;DHT22;4064;48.132;11.366;2023-06-24T02:56:58;15.50;99.90
8043;DHT22;4064;48.132;11.366;2023-06-24T02:59:24;15.60;99.90
8043;DHT22;4064;48.132;11.366;2023-06-24T03:01:54;15.50;99.90
8043;DHT22;4064;48.132;11.366;2023-06-24T03:04:20;15.60;99.90
8043;DHT22;4064;48.132;11.366;2023-06-24T03:06:46;15.50;99.90
8043;DHT22;4064;48.132;11.366;2023-06-24T03:09:14;15.50;99.90
8043;DHT22;4064;48.132;11.366;2023-06-24T03:11:44;15.50;99.90
8043;DHT22;4064;48.132;11.366;2023-06-24T03:14:11;15.50;99.90
8043;DHT22;4064;48.132;11.366;2023-06-24T03:16:37;15.50;99.90
8043;DHT22;4064;48.132;11.366;2023-06-24T03:19:06;15.50;99.90
8043;DHT22;4064;48.132;11.366;2023-06-24T03:21:32;15.40;99.90
8043;DHT22;4064;48.132;11.366;2023-06-24T03:23:57;15.40;99.90
8043;DHT22;4064;48.132;11.366;2023-06-24T03:26:34;15.40;99.90
8043;DHT22;4064;48.132;11.366;2023-06-24T03:29:01;15.40;99.90
8043;DHT22;4064;48.132;11.366;2023-06-24T03:31:27;15.30;99.90
8043;DHT22;4064;48.132;11.366;2023-06-24T03:33:52;15.20;99.90
8043;DHT22;4064;48.132;11.366;2023-06-24T03:36:18;15.30;99.90
8043;DHT22;4064;48.132;11.366;2023-06-24T03:38:44;15.20;99.90
8043;DHT22;4064;48.132;11.366;2023-06-24T03:41:10;15.20;99.90
8043;DHT22;4064;48.132;11.366;2023-06-24T03:43:35;15.30;99.90
8043;DHT22;4064;48.132;11.366;2023-06-24T03:46:01;15.30;99.90
8043;DHT22;4064;48.132;11.366;2023-06-24T03:48:27;15.20;99.90
8043;DHT22;4064;48.132;11.366;2023-06-24T03:50:53;15.10;99.90
8043;DHT22;4064;48.132;11.366;2023-06-24T03:53:19;15.20;99.90
8043;DHT22;4064;48.132;11.366;2023-06-24T03:55:45;15.10;99.90
8043;DHT22;4064;48.132;11.366;2023-06-24T03:58:10;15.20;99.90
8043;DHT22;4064;48.132;11.366;2023-06-24T04:00:36;15.30;99.90
8043;DHT22;4064;48.132;11.366;2023-06-24T04:03:06;15.20;99.90
8043;DHT22;4064;48.132;11.366;2023-06-24T04:05:33;15.30;99.90
8043;DHT22;4064;48.132;11.366;2023-06-24T04:07:59;15.20;99.90
8043;DHT22;4064;48.132;11.366;2023-06-24T04:10:25;15.30;99.90
8043;DHT22;4064;48.132;11.366;2023-06-24T04:12:51;15.40;99.90
8043;DHT22;4064;48.132;11.366;2023-06-24T04:15:16;15.40;99.90
8043;DHT22;4064;48.132;11.366;2023-06-24T04:17:42;15.40;99.90
8043;DHT22;4064;48.132;11.366;2023-06-24T04:20:08;15.50;99.90
8043;DHT22;4064;48.132;11.366;2023-06-24T04:22:36;15.50;99.90
8043;DHT22;4064;48.132;11.366;2023-06-24T04:25:01;15.50;99.90
8043;DHT22;4064;48.132;11.366;2023-06-24T04:27:27;15.60;99.90
8043;DHT22;4064;48.132;11.366;2023-06-24T04:29:53;15.60;99.90
8043;DHT22;4064;48.132;11.366;2023-06-24T04:32:19;15.60;99.90
8043;DHT22;4064;48.132;11.366;2023-06-24T04:34:44;15.70;99.90
8043;DHT22;4064;48.132;11.366;2023-06-24T04:37:10;15.70;99.90
8043;DHT22;4064;48.132;11.366;2023-06-24T04:39:36;15.60;99.90
8043;DHT22;4064;48.132;11.366;2023-06-24T04:42:01;15.70;99.90
8043;DHT22;4064;48.132;11.366;2023-06-24T04:44:27;15.70;99.90
8043;DHT22;4064;48.132;11.366;2023-06-24T04:46:53;15.60;99.90
8043;DHT22;4064;48.132;11.366;2023-06-24T04:49:18;15.60;99.90
8043;DHT22;4064;48.132;11.366;2023-06-24T04:51:44;15.80;99.90
8043;DHT22;4064;48.132;11.366;2023-06-24T04:54:10;15.80;99.90
8043;DHT22;4064;48.132;11.366;2023-06-24T04:56:38;15.90;99.90
8043;DHT22;4064;48.132;11.366;2023-06-24T04:59:03;15.90;99.90
8043;DHT22;4064;48.132;11.366;2023-06-24T05:01:29;15.90;99.90
8043;DHT22;4064;48.132;11.366;2023-06-24T05:03:55;15.90;99.90
8043;DHT22;4064;48.132;11.366;2023-06-24T05:06:20;15.80;99.90
8043;DHT22;4064;48.132;11.366;2023-06-24T05:08:46;15.90;99.90
8043;DHT22;4064;48.132;11.366;2023-06-24T05:11:12;16.00;99.90
8043;DHT22;4064;48.132;11.366;2023-06-24T05:13:38;16.00;99.90
8043;DHT22;4064;48.132;11.366;2023-06-24T05:16:03;16.10;99.90
8043;DHT22;4064;48.132;11.366;2023-06-24T05:18:30;16.20;99.90
8043;DHT22;4064;48.132;11.366;2023-06-24T05:20:55;16.20;99.90
8043;DHT22;4064;48.132;11.366;2023-06-24T05:23:21;16.20;99.90
8043;DHT22;4064;48.132;11.366;2023-06-24T05:25:50;16.30;99.90
8043;DHT22;4064;48.132;11.366;2023-06-24T05:28:16;16.30;99.90
8043;DHT22;4064;48.132;11.366;2023-06-24T05:30:44;16.40;99.90
8043;DHT22;4064;48.132;11.366;2023-06-24T05:33:10;16.50;99.90
8043;DHT22;4064;48.132;11.366;2023-06-24T05:35:35;16.50;99.90
8043;DHT22;4064;48.132;11.366;2023-06-24T05:38:05;16.60;99.90
8043;DHT22;4064;48.132;11.366;2023-06-24T05:40:31;16.60;99.90
8043;DHT22;4064;48.132;11.366;2023-06-24T05:42:56;16.80;99.90
8043;DHT22;4064;48.132;11.366;2023-06-24T05:45:22;16.80;99.90
8043;DHT22;4064;48.132;11.366;2023-06-24T05:47:48;16.90;99.90
8043;DHT22;4064;48.132;11.366;2023-06-24T05:50:13;16.90;99.90
8043;DHT22;4064;48.132;11.366;2023-06-24T05:52:39;16.90;99.90
8043;DHT22;4064;48.132;11.366;2023-06-24T05:55:05;16.90;99.90
8043;DHT22;4064;48.132;11.366;2023-06-24T05:57:31;16.90;99.90
8043;DHT22;4064;48.132;11.366;2023-06-24T05:59:56;16.90;99.90
8043;DHT22;4064;48.132;11.366;2023-06-24T06:02:22;17.00;99.90
8043;DHT22;4064;48.132;11.366;2023-06-24T06:04:51;17.00;99.90
8043;DHT22;4064;48.132;11.366;2023-06-24T06:07:16;17.10;99.90
8043;DHT22;4064;48.132;11.366;2023-06-24T06:09:43;17.10;99.90
8043;DHT22;4064;48.132;11.366;2023-06-24T06:12:09;17.10;99.90
8043;DHT22;4064;48.132;11.366;2023-06-24T06:14:34;17.20;99.90
8043;DHT22;4064;48.132;11.366;2023-06-24T06:17:00;17.20;99.90
8043;DHT22;4064;48.132;11.366;2023-06-24T06:19:26;17.20;99.90
8043;DHT22;4064;48.132;11.366;2023-06-24T06:21:52;17.20;99.90
8043;DHT22;4064;48.132;11.366;2023-06-24T06:24:17;17.20;99.90
8043;DHT22;4064;48.132;11.366;2023-06-24T06:26:44;17.20;99.90
8043;DHT22;4064;48.132;11.366;2023-06-24T06:29:13;17.30;99.90
8043;DHT22;4064;48.132;11.366;2023-06-24T06:31:39;17.40;99.90
8043;DHT22;4064;48.132;11.366;2023-06-24T06:34:05;17.40;99.90
8043;DHT22;4064;48.132;11.366;2023-06-24T06:36:31;17.40;99.90
8043;DHT22;4064;48.132;11.366;2023-06-24T06:38:56;17.60;99.90
8043;DHT22;4064;48.132;11.366;2023-06-24T06:41:22;17.70;99.90
8043;DHT22;4064;48.132;11.366;2023-06-24T06:43:53;17.90;99.90
8043;DHT22;4064;48.132;11.366;2023-06-24T06:46:19;17.90;99.90
8043;DHT22;4064;48.132;11.366;2023-06-24T06:48:45;17.90;99.90
8043;DHT22;4064;48.132;11.366;2023-06-24T06:51:12;18.00;99.90
8043;DHT22;4064;48.132;11.366;2023-06-24T06:53:38;18.20;99.90
8043;DHT22;4064;48.132;11.366;2023-06-24T06:56:04;18.20;99.90
8043;DHT22;4064;48.132;11.366;2023-06-24T06:58:30;18.30;99.90
8043;DHT22;4064;48.132;11.366;2023-06-24T07:00:55;18.30;99.90
8043;DHT22;4064;48.132;11.366;2023-06-24T07:03:21;18.20;99.90
8043;DHT22;4064;48.132;11.366;2023-06-24T07:05:47;18.30;99.90
8043;DHT22;4064;48.132;11.366;2023-06-24T07:08:13;18.40;99.90
8043;DHT22;4064;48.132;11.366;2023-06-24T07:10:38;18.50;99.90
8043;DHT22;4064;48.132;11.366;2023-06-24T07:13:04;18.50;99.90
8043;DHT22;4064;48.132;11.366;2023-06-24T07:15:30;18.70;99.90
8043;DHT22;4064;48.132;11.366;2023-06-24T07:17:55;18.60;99.90
8043;DHT22;4064;48.132;11.366;2023-06-24T07:20:22;18.80;99.90
8043;DHT22;4064;48.132;11.366;2023-06-24T07:22:47;18.70;99.90
8043;DHT22;4064;48.132;11.366;2023-06-24T07:25:13;18.80;99.90
8043;DHT22;4064;48.132;11.366;2023-06-24T07:27:39;18.90;99.90
8043;DHT22;4064;48.132;11.366;2023-06-24T07:30:06;18.90;99.90
8043;DHT22;4064;48.132;11.366;2023-06-24T07:32:32;18.90;99.90
8043;DHT22;4064;48.132;11.366;2023-06-24T07:34:58;18.90;99.90
8043;DHT22;4064;48.132;11.366;2023-06-24T07:37:24;18.90;99.90
8043;DHT22;4064;48.132;11.366;2023-06-24T07:39:50;19.00;99.90
8043;DHT22;4064;48.132;11.366;2023-06-24T07:42:15;19.00;99.90
8043;DHT22;4064;48.132;11.366;2023-06-24T07:44:47;19.20;99.90
8043;DHT22;4064;48.132;11.366;2023-06-24T07:47:13;19.30;99.90
8043;DHT22;4064;48.132;11.366;2023-06-24T07:49:39;19.30;99.90
8043;DHT22;4064;48.132;11.366;2023-06-24T07:52:05;19.20;99.90
8043;DHT22;4064;48.132;11.366;2023-06-24T07:54:31;19.20;99.90
8043;DHT22;4064;48.132;11.366;2023-06-24T07:56:57;19.30;99.90
8043;DHT22;4064;48.132;11.366;2023-06-24T07:59:23;19.40;99.90
8043;DHT22;4064;48.132;11.366;2023-06-24T08:01:50;19.50;99.90
8043;DHT22;4064;48.132;11.366;2023-06-24T08:04:16;19.40;99.90
8043;DHT22;4064;48.132;11.366;2023-06-24T08:06:42;19.60;99.90
8043;DHT22;4064;48.132;11.366;2023-06-24T08:09:07;19.50;99.90
8043;DHT22;4064;48.132;11.366;2023-06-24T08:11:33;19.50;99.90
8043;DHT22;4064;48.132;11.366;2023-06-24T08:13:59;19.50;99.90
8043;DHT22;4064;48.132;11.366;2023-06-24T08:16:25;19.50;99.90
8043;DHT22;4064;48.132;11.366;2023-06-24T08:18:51;19.50;99.90
8043;DHT22;4064;48.132;11.366;2023-06-24T08:21:16;19.90;99.90
8043;DHT22;4064;48.132;11.366;2023-06-24T08:23:42;20.70;99.90
8043;DHT22;4064;48.132;11.366;2023-06-24T08:26:08;20.90;99.90
8043;DHT22;4064;48.132;11.366;2023-06-24T08:28:34;21.20;99.90
8043;DHT22;4064;48.132;11.366;2023-06-24T08:31:00;21.30;99.90
8043;DHT22;4064;48.132;11.366;2023-06-24T08:33:26;21.20;99.90
8043;DHT22;4064;48.132;11.366;2023-06-24T08:35:52;21.60;99.90
8043;DHT22;4064;48.132;11.366;2023-06-24T08:38:17;22.10;99.90
8043;DHT22;4064;48.132;11.366;2023-06-24T08:40:44;22.40;98.20
8043;DHT22;4064;48.132;11.366;2023-06-24T08:43:11;22.80;97.40
8043;DHT22;4064;48.132;11.366;2023-06-24T08:45:37;23.30;99.20
8043;DHT22;4064;48.132;11.366;2023-06-24T08:48:03;23.40;94.20
8043;DHT22;4064;48.132;11.366;2023-06-24T08:50:36;23.30;95.20
8043;DHT22;4064;48.132;11.366;2023-06-24T08:53:07;23.10;92.60
8043;DHT22;4064;48.132;11.366;2023-06-24T08:55:46;23.80;94.00
8043;DHT22;4064;48.132;11.366;2023-06-24T08:58:13;24.00;90.60
8043;DHT22;4064;48.132;11.366;2023-06-24T09:00:39;24.10;88.80
8043;DHT22;4064;48.132;11.366;2023-06-24T09:03:05;24.50;91.10
8043;DHT22;4064;48.132;11.366;2023-06-24T09:05:31;23.70;88.30
8043;DHT22;4064;48.132;11.366;2023-06-24T09:07:56;23.90;86.40
8043;DHT22;4064;48.132;11.366;2023-06-24T09:10:32;24.40;90.00
8043;DHT22;4064;48.132;11.366;2023-06-24T09:13:03;24.20;89.10
8043;DHT22;4064;48.132;11.366;2023-06-24T09:15:32;24.50;84.20
8043;DHT22;4064;48.132;11.366;2023-06-24T09:17:59;24.50;87.00
8043;DHT22;4064;48.132;11.366;2023-06-24T09:20:28;24.30;83.50
8043;DHT22;4064;48.132;11.366;2023-06-24T09:23:03;23.70;87.60
8043;DHT22;4064;48.132;11.366;2023-06-24T09:25:29;22.60;86.60
8043;DHT22;4064;48.132;11.366;2023-06-24T09:27:58;22.00;86.50
8043;DHT22;4064;48.132;11.366;2023-06-24T09:30:24;22.40;89.20
8043;DHT22;4064;48.132;11.366;2023-06-24T09:32:54;23.00;91.60
8043;DHT22;4064;48.132;11.366;2023-06-24T09:35:24;23.70;84.90
8043;DHT22;4064;48.132;11.366;2023-06-24T09:37:51;24.20;79.90
8043;DHT22;4064;48.132;11.366;2023-06-24T09:40:17;24.30;82.50
8043;DHT22;4064;48.132;11.366;2023-06-24T09:42:53;23.90;82.20
8043;DHT22;4064;48.132;11.366;2023-06-24T09:45:24;24.00;84.30
8043;DHT22;4064;48.132;11.366;2023-06-24T09:47:50;24.70;76.20
8043;DHT22;4064;48.132;11.366;2023-06-24T09:50:16;24.90;74.40
8043;DHT22;4064;48.132;11.366;2023-06-24T09:52:43;24.50;79.60
8043;DHT22;4064;48.132;11.366;2023-06-24T09:55:11;24.50;79.60
8043;DHT22;4064;48.132;11.366;2023-06-24T09:57:38;24.30;77.40
8043;DHT22;4064;48.132;11.366;2023-06-24T10:00:05;23.80;79.20
8043;DHT22;4064;48.132;11.366;2023-06-24T10:02:31;24.20;77.60
8043;DHT22;4064;48.132;11.366;2023-06-24T10:04:59;24.60;78.10
8043;DHT22;4064;48.132;11.366;2023-06-24T10:07:26;24.70;75.00
8043;DHT22;4064;48.132;11.366;2023-06-24T10:09:53;24.60;77.00
8043;DHT22;4064;48.132;11.366;2023-06-24T10:12:19;24.80;72.90
8043;DHT22;4064;48.132;11.366;2023-06-24T10:14:45;25.30;69.00
8043;DHT22;4064;48.132;11.366;2023-06-24T10:17:11;25.60;66.90
8043;DHT22;4064;48.132;11.366;2023-06-24T10:19:38;25.50;66.10
8043;DHT22;4064;48.132;11.366;2023-06-24T10:22:10;25.10;64.70
8043;DHT22;4064;48.132;11.366;2023-06-24T10:24:41;25.70;65.90
8043;DHT22;4064;48.132;11.366;2023-06-24T10:27:15;25.70;65.50
8043;DHT22;4064;48.132;11.366;2023-06-24T10:29:45;25.50;66.80
8043;DHT22;4064;48.132;11.366;2023-06-24T10:32:12;25.60;61.80
8043;DHT22;4064;48.132;11.366;2023-06-24T10:39:54;25.70;65.50
8043;DHT22;4064;48.132;11.366;2023-06-24T10:44:53;25.70;62.10
8043;DHT22;4064;48.132;11.366;2023-06-24T10:47:20;26.10;66.80
8043;DHT22;4064;48.132;11.366;2023-06-24T10:49:46;26.30;57.90
8043;DHT22;4064;48.132;11.366;2023-06-24T10:52:13;26.30;59.20
8043;DHT22;4064;48.132;11.366;2023-06-24T10:54:39;25.40;58.40
8043;DHT22;4064;48.132;11.366;2023-06-24T10:57:06;24.50;58.30
8043;DHT22;4064;48.132;11.366;2023-06-24T10:59:42;24.60;59.50
8043;DHT22;4064;48.132;11.366;2023-06-24T11:02:09;24.80;60.90
8043;DHT22;4064;48.132;11.366;2023-06-24T11:04:56;25.50;60.60
8043;DHT22;4064;48.132;11.366;2023-06-24T11:07:27;25.70;55.90
8043;DHT22;4064;48.132;11.366;2023-06-24T11:10:12;25.40;57.30
8043;DHT22;4064;48.132;11.366;2023-06-24T11:12:39;25.40;56.60
8043;DHT22;4064;48.132;11.366;2023-06-24T11:15:13;25.70;57.60
8043;DHT22;4064;48.132;11.366;2023-06-24T11:17:39;25.90;55.40
8043;DHT22;4064;48.132;11.366;2023-06-24T11:20:10;26.10;55.60
8043;DHT22;4064;48.132;11.366;2023-06-24T11:22:37;25.80;54.60
8043;DHT22;4064;48.132;11.366;2023-06-24T11:25:03;25.90;55.20
8043;DHT22;4064;48.132;11.366;2023-06-24T11:27:30;26.20;58.90
8043;DHT22;4064;48.132;11.366;2023-06-24T11:29:58;26.70;55.80
8043;DHT22;4064;48.132;11.366;2023-06-24T11:32:34;26.70;56.90
8043;DHT22;4064;48.132;11.366;2023-06-24T11:35:00;26.20;54.10
8043;DHT22;4064;48.132;11.366;2023-06-24T11:37:31;25.80;56.50
8043;DHT22;4064;48.132;11.366;2023-06-24T11:40:08;26.40;53.00
8043;DHT22;4064;48.132;11.366;2023-06-24T11:42:40;27.00;56.30
8043;DHT22;4064;48.132;11.366;2023-06-24T11:45:11;26.40;52.10
8043;DHT22;4064;48.132;11.366;2023-06-24T11:47:39;26.50;53.00
8043;DHT22;4064;48.132;11.366;2023-06-24T11:50:06;27.00;54.70
8043;DHT22;4064;48.132;11.366;2023-06-24T11:55:02;27.50;51.30
8043;DHT22;4064;48.132;11.366;2023-06-24T12:00:48;27.60;50.50
8043;DHT22;4064;48.132;11.366;2023-06-24T12:03:12;27.50;54.40
8043;DHT22;4064;48.132;11.366;2023-06-24T12:05:38;27.60;51.10
8043;DHT22;4064;48.132;11.366;2023-06-24T12:08:11;27.30;55.70
8043;DHT22;4064;48.132;11.366;2023-06-24T12:10:38;27.30;51.30
8043;DHT22;4064;48.132;11.366;2023-06-24T12:13:05;26.90;51.70
8043;DHT22;4064;48.132;11.366;2023-06-24T12:15:34;26.40;51.60
8043;DHT22;4064;48.132;11.366;2023-06-24T12:18:00;27.00;51.60
8043;DHT22;4064;48.132;11.366;2023-06-24T12:20:26;27.00;53.20
8043;DHT22;4064;48.132;11.366;2023-06-24T12:22:52;26.60;54.50
8043;DHT22;4064;48.132;11.366;2023-06-24T12:25:18;26.40;54.20
8043;DHT22;4064;48.132;11.366;2023-06-24T12:27:45;26.70;52.60
8043;DHT22;4064;48.132;11.366;2023-06-24T12:30:11;25.50;55.40
8043;DHT22;4064;48.132;11.366;2023-06-24T12:32:38;25.10;55.50
8043;DHT22;4064;48.132;11.366;2023-06-24T12:35:04;26.30;52.30
8043;DHT22;4064;48.132;11.366;2023-06-24T12:37:31;26.80;53.00
8043;DHT22;4064;48.132;11.366;2023-06-24T12:39:57;27.20;57.90
8043;DHT22;4064;48.132;11.366;2023-06-24T12:42:23;27.00;54.00
8043;DHT22;4064;48.132;11.366;2023-06-24T12:44:49;27.40;51.70
8043;DHT22;4064;48.132;11.366;2023-06-24T12:47:15;27.60;54.90
8043;DHT22;4064;48.132;11.366;2023-06-24T12:49:40;27.90;52.80
8043;DHT22;4064;48.132;11.366;2023-06-24T12:52:06;27.80;53.90
8043;DHT22;4064;48.132;11.366;2023-06-24T12:58:27;27.50;51.00
8043;DHT22;4064;48.132;11.366;2023-06-24T13:00:52;27.50;52.20
8043;DHT22;4064;48.132;11.366;2023-06-24T13:03:18;27.30;52.50
8043;DHT22;4064;48.132;11.366;2023-06-24T13:05:44;26.80;55.30
8043;DHT22;4064;48.132;11.366;2023-06-24T13:08:10;27.10;51.80
8043;DHT22;4064;48.132;11.366;2023-06-24T13:10:37;27.00;51.50
8043;DHT22;4064;48.132;11.366;2023-06-24T13:13:04;27.40;50.60
8043;DHT22;4064;48.132;11.366;2023-06-24T13:15:29;27.20;49.90
8043;DHT22;4064;48.132;11.366;2023-06-24T13:17:56;27.50;53.60
8043;DHT22;4064;48.132;11.366;2023-06-24T13:20:22;27.10;49.60
8043;DHT22;4064;48.132;11.366;2023-06-24T13:22:48;26.60;52.40
8043;DHT22;4064;48.132;11.366;2023-06-24T13:25:13;26.70;50.00
8043;DHT22;4064;48.132;11.366;2023-06-24T13:27:39;27.50;48.00
8043;DHT22;4064;48.132;11.366;2023-06-24T13:30:05;27.10;50.00
8043;DHT22;4064;48.132;11.366;2023-06-24T13:32:31;26.70;48.80
8043;DHT22;4064;48.132;11.366;2023-06-24T13:34:57;27.50;51.30
8043;DHT22;4064;48.132;11.366;2023-06-24T13:37:23;27.60;50.80
8043;DHT22;4064;48.132;11.366;2023-06-24T13:39:48;27.40;49.50
8043;DHT22;4064;48.132;11.366;2023-06-24T13:42:14;26.90;49.80
8043;DHT22;4064;48.132;11.366;2023-06-24T13:44:40;27.70;51.60
8043;DHT22;4064;48.132;11.366;2023-06-24T13:47:06;27.70;46.10
8043;DHT22;4064;48.132;11.366;2023-06-24T13:49:32;27.30;48.90
8043;DHT22;4064;48.132;11.366;2023-06-24T13:51:57;26.70;50.60
8043;DHT22;4064;48.132;11.366;2023-06-24T13:54:23;27.10;51.70
8043;DHT22;4064;48.132;11.366;2023-06-24T13:56:50;27.20;52.90
8043;DHT22;4064;48.132;11.366;2023-06-24T13:59:15;26.50;54.70
8043;DHT22;4064;48.132;11.366;2023-06-24T14:01:41;26.50;55.00
8043;DHT22;4064;48.132;11.366;2023-06-24T14:04:07;26.40;54.80
8043;DHT22;4064;48.132;11.366;2023-06-24T14:06:33;25.80;54.20
8043;DHT22;4064;48.132;11.366;2023-06-24T14:08:58;25.70;53.50
8043;DHT22;4064;48.132;11.366;2023-06-24T14:11:24;26.20;53.50
8043;DHT22;4064;48.132;11.366;2023-06-24T14:13:50;27.00;53.70
8043;DHT22;4064;48.132;11.366;2023-06-24T14:16:16;26.70;52.10
8043;DHT22;4064;48.132;11.366;2023-06-24T14:18:43;26.10;51.40
8043;DHT22;4064;48.132;11.366;2023-06-24T14:21:09;26.40;54.40
8043;DHT22;4064;48.132;11.366;2023-06-24T14:23:35;26.70;49.90
8043;DHT22;4064;48.132;11.366;2023-06-24T14:26:01;26.70;49.70
8043;DHT22;4064;48.132;11.366;2023-06-24T14:28:27;26.90;50.70
8043;DHT22;4064;48.132;11.366;2023-06-24T14:30:53;26.30;48.30
8043;DHT22;4064;48.132;11.366;2023-06-24T14:33:18;26.10;50.40
8043;DHT22;4064;48.132;11.366;2023-06-24T14:35:44;26.00;51.80
8043;DHT22;4064;48.132;11.366;2023-06-24T14:38:10;26.00;50.00
8043;DHT22;4064;48.132;11.366;2023-06-24T14:40:36;25.90;51.10
8043;DHT22;4064;48.132;11.366;2023-06-24T14:43:01;26.00;50.60
8043;DHT22;4064;48.132;11.366;2023-06-24T14:45:27;25.70;49.50
8043;DHT22;4064;48.132;11.366;2023-06-24T14:47:53;25.40;51.00
8043;DHT22;4064;48.132;11.366;2023-06-24T14:50:19;25.20;46.80
8043;DHT22;4064;48.132;11.366;2023-06-24T14:52:45;25.40;49.60
8043;DHT22;4064;48.132;11.366;2023-06-24T14:55:11;25.10;51.50
8043;DHT22;4064;48.132;11.366;2023-06-24T14:57:37;25.20;50.00
8043;DHT22;4064;48.132;11.366;2023-06-24T15:00:07;25.40;53.10
8043;DHT22;4064;48.132;11.366;2023-06-24T15:02:33;25.60;52.00
8043;DHT22;4064;48.132;11.366;2023-06-24T15:05:00;25.40;50.70
8043;DHT22;4064;48.132;11.366;2023-06-24T15:07:26;25.30;50.90
8043;DHT22;4064;48.132;11.366;2023-06-24T15:09:51;25.40;50.00
8043;DHT22;4064;48.132;11.366;2023-06-24T15:12:17;25.20;49.60
8043;DHT22;4064;48.132;11.366;2023-06-24T15:14:43;25.30;49.80
8043;DHT22;4064;48.132;11.366;2023-06-24T15:17:10;25.30;50.00
8043;DHT22;4064;48.132;11.366;2023-06-24T15:19:36;25.60;50.90
8043;DHT22;4064;48.132;11.366;2023-06-24T15:22:02;25.60;51.10
8043;DHT22;4064;48.132;11.366;2023-06-24T15:24:28;25.20;52.20
8043;DHT22;4064;48.132;11.366;2023-06-24T15:26:56;24.90;52.00
8043;DHT22;4064;48.132;11.366;2023-06-24T15:29:21;24.80;52.80
8043;DHT22;4064;48.132;11.366;2023-06-24T15:31:47;25.10;52.30
8043;DHT22;4064;48.132;11.366;2023-06-24T15:34:13;25.10;52.40
8043;DHT22;4064;48.132;11.366;2023-06-24T15:36:39;25.20;50.70
8043;DHT22;4064;48.132;11.366;2023-06-24T15:39:06;25.30;51.00
8043;DHT22;4064;48.132;11.366;2023-06-24T15:41:31;25.10;51.20
8043;DHT22;4064;48.132;11.366;2023-06-24T15:43:57;25.00;50.00
8043;DHT22;4064;48.132;11.366;2023-06-24T15:46:23;24.50;50.90
8043;DHT22;4064;48.132;11.366;2023-06-24T15:55:24;24.80;51.30
8043;DHT22;4064;48.132;11.366;2023-06-24T15:57:50;24.80;51.50
8043;DHT22;4064;48.132;11.366;2023-06-24T16:00:16;24.60;51.50
8043;DHT22;4064;48.132;11.366;2023-06-24T16:02:42;24.30;50.40
8043;DHT22;4064;48.132;11.366;2023-06-24T16:05:07;24.20;51.40
8043;DHT22;4064;48.132;11.366;2023-06-24T16:07:34;24.20;52.10
8043;DHT22;4064;48.132;11.366;2023-06-24T16:10:00;24.30;52.30
8043;DHT22;4064;48.132;11.366;2023-06-24T16:12:26;24.60;52.90
8043;DHT22;4064;48.132;11.366;2023-06-24T16:14:52;24.50;52.20
8043;DHT22;4064;48.132;11.366;2023-06-24T16:17:18;24.30;51.70
8043;DHT22;4064;48.132;11.366;2023-06-24T16:19:44;24.30;52.70